Time;durP1;ratioP1;P1;durP2;ratioP2;P2;SDS_P1;SDS_P2;PMS_P1;PMS_P2;Temp;Humidity;BMP_temperature;BMP_pressure;BME280_temperature;BME280_humidity;BME280_pressure;Samples;Min_cycle;Max_cycle;Signal;HPM_P1;HPM_P2
2022/04/13 00:01:50;;;;;;;15.15;3.05;;;10.90;99.90;;;;;;4972896;28;20053;-62
2022/04/13 00:04:18;;;;;;;10.73;2.53;;;10.90;99.90;;;;;;4972655;28;20159;-61
2022/04/13 00:06:44;;;;;;;9.15;2.35;;;10.90;99.90;;;;;;4973478;28;20528;-62
2022/04/13 00:09:11;;;;;;;;;;;10.90;99.90;;;;;;4972736;28;20062;-62
2022/04/13 00:11:38;;;;;;;13.07;2.55;;;10.90;99.90;;;;;;4973015;28;19932;-63
2022/04/13 00:14:05;;;;;;;;;;;10.90;99.90;;;;;;4974231;28;20127;-62
2022/04/13 00:16:32;;;;;;;6.07;2.17;;;11.00;99.90;;;;;;4973457;28;19937;-62
2022/04/13 00:18:58;;;;;;;;;;;11.00;99.90;;;;;;4973345;28;20046;-62
2022/04/13 00:21:25;;;;;;;10.77;3.17;;;11.00;99.90;;;;;;4973149;28;19926;-62
2022/04/13 00:23:52;;;;;;;13.13;3.15;;;11.00;99.90;;;;;;4973992;28;20771;-62
2022/04/13 00:26:19;;;;;;;14.90;2.45;;;11.00;99.90;;;;;;4971443;28;20053;-62
2022/04/13 00:28:45;;;;;;;;;;;11.00;99.90;;;;;;4972586;28;20681;-62
2022/04/13 00:31:12;;;;;;;8.10;2.72;;;11.10;99.90;;;;;;4973296;28;19925;-62
2022/04/13 00:33:39;;;;;;;9.50;2.30;;;11.10;99.90;;;;;;4972030;28;20034;-62
2022/04/13 00:36:06;;;;;;;;;;;11.10;99.90;;;;;;4974088;28;20069;-62
2022/04/13 00:38:33;;;;;;;9.00;2.28;;;11.10;99.90;;;;;;4973180;28;20643;-62
2022/04/13 00:40:59;;;;;;;;;;;11.10;99.90;;;;;;4988011;28;20046;-62
2022/04/13 00:43:26;;;;;;;4.88;2.13;;;11.10;99.90;;;;;;4973517;28;19929;-62
2022/04/13 00:45:53;;;;;;;11.38;1.88;;;11.10;99.90;;;;;;4973960;28;20101;-62
2022/04/13 00:48:27;;;;;;;;;;;11.00;99.90;;;;;;4972073;28;20046;-62
2022/04/13 00:50:54;;;;;;;4.30;2.03;;;11.00;99.90;;;;;;4978253;28;19925;-62
2022/04/13 00:53:23;;;;;;;11.93;2.65;;;11.00;99.90;;;;;;4983754;28;20579;-62
2022/04/13 00:55:56;;;;;;;16.73;3.45;;;11.00;99.90;;;;;;4991272;28;20045;-62
2022/04/13 00:58:27;;;;;;;9.10;2.78;;;10.90;99.90;;;;;;4992625;28;20050;-62
2022/04/13 01:00:55;;;;;;;9.18;2.25;;;10.80;99.90;;;;;;4993984;28;20266;-62
2022/04/13 01:03:27;;;;;;;13.65;2.45;;;10.80;99.90;;;;;;4976097;28;20045;-62
2022/04/13 01:05:54;;;;;;;16.00;2.15;;;10.70;99.90;;;;;;4976399;28;20101;-62
2022/04/13 01:08:21;;;;;;;;;;;10.60;99.90;;;;;;4977380;28;20039;-62
2022/04/13 01:10:49;;;;;;;8.50;1.90;;;10.60;99.90;;;;;;4974808;28;19983;-61
2022/04/13 01:13:17;;;;;;;8.57;2.22;;;10.50;99.90;;;;;;4976314;28;20070;-62
2022/04/13 01:15:44;;;;;;;10.32;2.05;;;10.50;99.90;;;;;;4976537;28;20038;-62
2022/04/13 01:18:13;;;;;;;;;;;10.50;99.90;;;;;;4975964;28;20046;-61
2022/04/13 01:20:53;;;;;;;7.38;1.98;;;10.40;99.90;;;;;;4976764;28;20675;-62
2022/04/13 01:23:21;;;;;;;8.52;2.17;;;10.50;99.90;;;;;;4976526;28;20057;-62
2022/04/13 01:25:49;;;;;;;3.28;2.03;;;10.40;99.90;;;;;;4975894;28;20043;-62
2022/04/13 01:28:16;;;;;;;11.35;2.55;;;10.40;99.90;;;;;;4973595;28;20047;-62
2022/04/13 01:30:43;;;;;;;10.30;2.17;;;10.40;99.90;;;;;;4976179;28;20046;-62
2022/04/13 01:33:11;;;;;;;7.53;1.88;;;10.40;99.90;;;;;;4975337;28;20049;-62
2022/04/13 01:35:38;;;;;;;5.55;1.90;;;10.40;99.90;;;;;;4976171;28;20054;-62
2022/04/13 01:38:05;;;;;;;7.80;1.95;;;10.40;99.90;;;;;;4976051;28;20148;-62
2022/04/13 01:40:33;;;;;;;7.95;2.10;;;10.40;99.90;;;;;;4974971;28;20057;-62
2022/04/13 01:42:59;;;;;;;5.25;1.88;;;10.40;99.90;;;;;;4976309;28;20538;-61
2022/04/13 01:45:27;;;;;;;15.07;2.35;;;10.40;99.90;;;;;;4976044;28;20049;-62
2022/04/13 01:47:53;;;;;;;;;;;10.40;99.90;;;;;;4975360;28;20042;-62
2022/04/13 01:50:20;;;;;;;7.28;2.38;;;10.30;99.90;;;;;;4974793;28;20885;-62
2022/04/13 01:52:48;;;;;;;4.25;1.92;;;10.30;99.90;;;;;;4974787;28;20038;-62
2022/04/13 01:55:15;;;;;;;7.35;2.25;;;10.30;99.90;;;;;;4975476;28;20054;-62
2022/04/13 01:57:42;;;;;;;;;;;10.30;99.90;;;;;;4975770;28;20047;-63
2022/04/13 02:00:11;;;;;;;14.27;2.13;;;10.30;99.90;;;;;;4975776;28;20012;-61
2022/04/13 02:02:38;;;;;;;13.63;2.55;;;10.20;99.90;;;;;;4974721;28;20044;-62
2022/04/13 02:05:06;;;;;;;13.98;2.75;;;10.20;99.90;;;;;;4974191;28;20133;-61
2022/04/13 02:07:32;;;;;;;9.00;2.63;;;10.10;99.90;;;;;;4975302;28;20042;-62
2022/04/13 02:09:59;;;;;;;10.90;2.20;;;10.10;99.90;;;;;;4974559;28;20038;-62
2022/04/13 02:12:26;;;;;;;10.93;3.50;;;10.00;99.90;;;;;;4975447;28;20508;-62
2022/04/13 02:14:54;;;;;;;6.68;3.03;;;10.00;99.90;;;;;;4975702;28;20552;-62
2022/04/13 02:17:21;;;;;;;13.68;3.70;;;9.90;99.90;;;;;;4974237;28;20684;-62
2022/04/13 02:19:48;;;;;;;12.77;4.47;;;9.90;99.90;;;;;;4975079;28;20050;-61
2022/04/13 02:22:14;;;;;;;10.50;3.47;;;9.80;99.90;;;;;;4975408;28;20105;-62
2022/04/13 02:25:03;;;;;;;6.85;3.65;;;9.80;99.90;;;;;;4974734;28;20085;-62
2022/04/13 02:27:29;;;;;;;8.60;2.95;;;9.80;99.90;;;;;;4974161;28;20450;-62
2022/04/13 02:29:56;;;;;;;6.90;3.13;;;9.80;99.90;;;;;;4974459;28;20444;-62
2022/04/13 02:32:23;;;;;;;;;;;9.80;99.90;;;;;;4975605;28;20046;-62
2022/04/13 02:34:50;;;;;;;9.90;3.50;;;9.80;99.90;;;;;;4975314;28;19926;-62
2022/04/13 02:37:16;;;;;;;;;;;9.80;99.90;;;;;;4974579;28;20054;-62
2022/04/13 02:39:46;;;;;;;8.75;3.40;;;9.80;99.90;;;;;;4974797;28;19926;-62
2022/04/13 02:42:14;;;;;;;11.40;4.32;;;9.70;99.90;;;;;;4975372;28;20508;-62
2022/04/13 02:44:42;;;;;;;16.15;3.90;;;9.60;99.90;;;;;;4973767;28;20054;-62
2022/04/13 02:47:10;;;;;;;23.15;4.57;;;9.60;99.90;;;;;;4973775;28;20505;-62
2022/04/13 02:49:37;;;;;;;8.82;3.38;;;9.50;99.90;;;;;;4974767;28;20042;-61
2022/04/13 02:52:05;;;;;;;13.25;3.53;;;9.50;99.90;;;;;;4974005;28;20108;-62
2022/04/13 02:54:32;;;;;;;12.00;3.67;;;9.50;99.90;;;;;;4971673;28;20074;-62
2022/04/13 02:56:58;;;;;;;;;;;9.60;99.90;;;;;;4975334;28;20073;-61
2022/04/13 02:59:25;;;;;;;11.30;3.70;;;9.60;99.90;;;;;;4975296;28;19933;-62
2022/04/13 03:01:53;;;;;;;11.10;3.78;;;9.60;99.90;;;;;;4972936;28;20061;-62
2022/04/13 03:04:27;;;;;;;9.27;2.92;;;9.60;99.90;;;;;;4973314;28;20046;-62
2022/04/13 03:06:55;;;;;;;7.03;3.55;;;9.60;99.90;;;;;;4972515;28;20039;-62
2022/04/13 03:09:22;;;;;;;7.57;3.17;;;9.60;99.90;;;;;;4974095;28;20553;-62
2022/04/13 03:11:48;;;;;;;8.63;2.22;;;9.60;99.90;;;;;;4974271;28;20058;-62
2022/04/13 03:14:15;;;;;;;7.95;2.60;;;9.60;99.90;;;;;;4974156;28;20097;-61
2022/04/13 03:16:42;;;;;;;;;;;9.60;99.90;;;;;;4973902;28;20672;-62
2022/04/13 03:19:09;;;;;;;13.25;2.55;;;9.60;99.90;;;;;;4973546;28;19954;-62
2022/04/13 03:21:36;;;;;;;;;;;9.60;99.90;;;;;;4975012;28;20053;-62
2022/04/13 03:24:03;;;;;;;11.40;3.33;;;9.60;99.90;;;;;;4973016;28;20589;-62
2022/04/13 03:26:29;;;;;;;6.05;2.67;;;9.70;99.90;;;;;;4974823;28;20685;-62
2022/04/13 03:28:56;;;;;;;6.78;2.25;;;9.70;99.90;;;;;;4972497;28;20124;-62
2022/04/13 03:31:23;;;;;;;;;;;9.60;99.90;;;;;;4987771;28;20049;-62
2022/04/13 03:33:50;;;;;;;8.70;2.85;;;9.60;99.90;;;;;;4974874;28;19932;-61
2022/04/13 03:36:18;;;;;;;;;;;9.60;99.90;;;;;;4974566;28;20101;-62
2022/04/13 03:38:45;;;;;;;13.80;3.47;;;9.60;99.90;;;;;;4973235;28;19937;-62
2022/04/13 03:41:12;;;;;;;;;;;9.60;99.90;;;;;;4973824;28;20061;-62
2022/04/13 03:43:38;;;;;;;11.60;2.20;;;9.60;99.90;;;;;;4973977;28;19932;-62
2022/04/13 03:46:05;;;;;;;10.75;2.53;;;9.60;99.90;;;;;;4973532;28;20056;-62
2022/04/13 03:48:33;;;;;;;9.38;2.40;;;9.60;99.90;;;;;;4972463;28;20042;-62
2022/04/13 03:51:00;;;;;;;9.25;2.85;;;9.60;99.90;;;;;;4974246;28;20047;-62
2022/04/13 03:53:27;;;;;;;8.73;2.78;;;9.60;99.90;;;;;;4972542;28;20038;-62
2022/04/13 03:55:54;;;;;;;;;;;9.60;99.90;;;;;;4974583;28;20537;-62
2022/04/13 03:58:21;;;;;;;6.03;2.10;;;9.60;99.90;;;;;;4973322;28;20053;-62
2022/04/13 04:00:48;;;;;;;9.77;2.28;;;9.60;99.90;;;;;;4972602;28;20054;-62
2022/04/13 04:03:15;;;;;;;14.23;2.60;;;9.60;99.90;;;;;;4962943;28;20046;-63
2022/04/13 04:05:42;;;;;;;24.85;3.00;;;9.60;99.90;;;;;;4973740;28;20547;-62
2022/04/13 04:08:08;;;;;;;;;;;9.50;99.90;;;;;;4971771;28;20046;-63
2022/04/13 04:10:35;;;;;;;11.70;3.00;;;9.50;99.90;;;;;;4973762;28;20617;-62
2022/04/13 04:13:02;;;;;;;15.50;2.50;;;9.50;99.90;;;;;;4973504;28;20058;-62
2022/04/13 04:15:30;;;;;;;6.93;2.20;;;9.50;99.90;;;;;;4971690;28;20082;-62
2022/04/13 04:17:57;;;;;;;;;;;9.50;99.90;;;;;;4954624;28;20229;-62
2022/04/13 04:20:23;;;;;;;15.80;3.53;;;9.50;99.90;;;;;;4954104;28;19960;-62
2022/04/13 04:22:50;;;;;;;19.90;3.88;;;9.50;99.90;;;;;;4952518;28;20834;-63
2022/04/13 04:25:17;;;;;;;;;;;9.60;99.90;;;;;;4954599;28;20055;-62
2022/04/13 04:27:44;;;;;;;19.90;3.58;;;9.60;99.90;;;;;;4953573;28;20005;-62
2022/04/13 04:30:11;;;;;;;14.30;2.33;;;9.50;99.90;;;;;;4959279;28;20042;-62
2022/04/13 04:32:37;;;;;;;;;;;9.50;99.90;;;;;;4972933;28;20128;-62
2022/04/13 04:35:08;;;;;;;13.85;3.10;;;9.40;99.90;;;;;;4977148;28;19925;-62
2022/04/13 04:37:35;;;;;;;12.77;2.70;;;9.40;99.90;;;;;;4976304;28;20129;-62
2022/04/13 04:40:02;;;;;;;12.32;2.55;;;9.40;99.90;;;;;;4977228;28;20050;-62
2022/04/13 04:42:29;;;;;;;11.52;2.40;;;9.40;99.90;;;;;;4975981;28;20614;-62
2022/04/13 04:44:57;;;;;;;17.63;2.80;;;9.30;99.90;;;;;;4976096;28;20058;-63
2022/04/13 04:47:27;;;;;;;12.43;2.90;;;9.30;99.90;;;;;;4974861;28;20493;-63
2022/04/13 04:49:54;;;;;;;11.77;2.28;;;9.30;99.90;;;;;;4976741;28;20489;-54
2022/04/13 04:52:21;;;;;;;5.15;2.10;;;9.30;99.90;;;;;;4976400;28;20867;-51
2022/04/13 04:54:48;;;;;;;9.63;2.80;;;9.30;99.90;;;;;;4975821;28;20599;-54
2022/04/13 04:57:14;;;;;;;6.07;3.20;;;9.30;99.90;;;;;;4976338;28;20067;-56
2022/04/13 04:59:41;;;;;;;21.95;3.22;;;9.30;99.90;;;;;;4976475;28;20058;-59
2022/04/13 05:02:08;;;;;;;12.05;3.45;;;9.30;99.90;;;;;;4976023;28;20541;-56
2022/04/13 05:04:35;;;;;;;;;;;9.30;99.90;;;;;;4977332;28;20507;-61
2022/04/13 05:07:02;;;;;;;9.07;2.83;;;9.30;99.90;;;;;;4973484;28;20549;-62
2022/04/13 05:09:28;;;;;;;;;;;9.30;99.90;;;;;;4977394;28;20053;-62
2022/04/13 05:12:01;;;;;;;7.50;2.97;;;9.30;99.90;;;;;;4976708;28;19926;-60
2022/04/13 05:14:29;;;;;;;;;;;9.30;99.90;;;;;;4976892;28;20752;-62
2022/04/13 05:16:56;;;;;;;9.68;3.10;;;9.30;99.90;;;;;;4974366;28;20028;-63
2022/04/13 05:19:22;;;;;;;13.77;4.28;;;9.30;99.90;;;;;;4976402;28;20045;-60
2022/04/13 05:21:49;;;;;;;14.43;3.35;;;9.30;99.90;;;;;;4976013;28;20058;-60
2022/04/13 05:24:16;;;;;;;;;;;9.30;99.90;;;;;;4976865;28;20104;-60
2022/04/13 05:26:43;;;;;;;9.60;3.40;;;9.30;99.90;;;;;;4974223;28;20243;-61
2022/04/13 05:29:09;;;;;;;10.52;3.17;;;9.30;99.90;;;;;;4975425;28;20050;-59
2022/04/13 05:31:36;;;;;;;15.02;2.97;;;9.30;99.90;;;;;;4974946;28;20046;-61
2022/04/13 05:34:03;;;;;;;;;;;9.40;99.90;;;;;;4958992;28;20046;-60
2022/04/13 05:36:30;;;;;;;13.60;3.30;;;9.40;99.90;;;;;;4975609;28;19925;-60
2022/04/13 05:38:57;;;;;;;8.95;2.97;;;9.40;99.90;;;;;;4975560;28;20238;-58
2022/04/13 05:41:23;;;;;;;;;;;9.50;99.90;;;;;;4975831;28;20050;-61
2022/04/13 05:43:50;;;;;;;9.88;3.55;;;9.60;99.90;;;;;;4976160;28;19933;-60
2022/04/13 05:46:17;;;;;;;;;;;9.60;99.90;;;;;;4974454;28;20807;-62
2022/04/13 05:48:44;;;;;;;11.10;2.13;;;9.70;99.90;;;;;;4974808;28;19983;-59
2022/04/13 05:51:11;;;;;;;14.80;5.30;;;9.80;99.90;;;;;;4975806;28;20047;-63
2022/04/13 05:53:38;;;;;;;12.60;4.13;;;9.90;99.90;;;;;;4973322;28;20153;-60
2022/04/13 05:56:05;;;;;;;11.05;3.63;;;10.00;99.90;;;;;;4974914;28;20112;-61
2022/04/13 05:58:32;;;;;;;10.35;3.83;;;10.10;99.90;;;;;;4974056;28;20070;-62
2022/04/13 06:00:59;;;;;;;;;;;10.20;99.90;;;;;;4974331;28;20530;-62
2022/04/13 06:03:26;;;;;;;9.30;2.97;;;10.30;99.90;;;;;;4975416;28;20184;-62
2022/04/13 06:06:08;;;;;;;11.52;3.35;;;10.40;99.90;;;;;;4975101;28;20109;-63
2022/04/13 06:08:35;;;;;;;12.05;2.70;;;10.60;99.90;;;;;;4973232;28;20476;-61
2022/04/13 06:11:02;;;;;;;;;;;10.60;99.90;;;;;;4975958;28;20122;-63
2022/04/13 06:13:28;;;;;;;14.82;3.00;;;10.80;99.90;;;;;;4975101;28;19972;-64
2022/04/13 06:15:56;;;;;;;18.73;3.53;;;10.90;99.90;;;;;;4975343;28;20049;-63
2022/04/13 06:18:22;;;;;;;13.27;3.63;;;11.00;99.90;;;;;;4973710;28;20779;-63
2022/04/13 06:20:49;;;;;;;12.40;3.13;;;11.10;99.90;;;;;;4974865;28;20896;-62
2022/04/13 06:23:18;;;;;;;16.67;3.72;;;11.20;99.90;;;;;;4973864;28;20052;-62
2022/04/13 06:25:45;;;;;;;12.32;3.35;;;11.30;99.90;;;;;;4975519;28;20576;-63
2022/04/13 06:28:11;;;;;;;;;;;11.30;99.90;;;;;;4974872;28;20046;-62
2022/04/13 06:30:38;;;;;;;13.55;2.42;;;11.40;99.90;;;;;;4975281;28;20455;-60
2022/04/13 06:33:05;;;;;;;;;;;11.50;99.90;;;;;;4973545;28;20564;-61
2022/04/13 06:35:32;;;;;;;8.18;3.17;;;11.70;99.90;;;;;;4975602;28;19926;-61
2022/04/13 06:37:58;;;;;;;;;;;11.80;99.90;;;;;;4975521;28;20440;-60
2022/04/13 06:40:25;;;;;;;11.07;3.33;;;11.90;99.90;;;;;;4974916;28;20431;-61
2022/04/13 06:42:52;;;;;;;;;;;12.00;99.90;;;;;;4973820;28;20384;-56
2022/04/13 06:45:19;;;;;;;14.88;3.25;;;12.20;99.90;;;;;;4984760;28;19965;-56
2022/04/13 06:47:48;;;;;;;;;;;12.30;99.90;;;;;;4992777;28;20784;-62
2022/04/13 06:50:15;;;;;;;12.40;3.40;;;12.40;99.90;;;;;;4991375;28;19929;-62
2022/04/13 06:52:42;;;;;;;;;;;12.60;99.90;;;;;;4993816;28;20050;-61
2022/04/13 06:55:10;;;;;;;6.47;3.25;;;12.70;99.90;;;;;;4986819;28;19934;-67
2022/04/13 06:57:38;;;;;;;9.00;3.53;;;12.80;99.90;;;;;;4992677;28;20050;-61
2022/04/13 07:00:08;;;;;;;9.02;3.78;;;12.90;99.90;;;;;;4993401;28;20050;-60
2022/04/13 07:02:36;;;;;;;14.80;3.97;;;13.10;99.90;;;;;;4979088;28;20069;-62
2022/04/13 07:05:22;;;;;;;;;;;13.10;99.90;;;;;;4955595;28;20066;-61
2022/04/13 07:07:49;;;;;;;11.63;3.45;;;13.30;99.90;;;;;;4954687;28;20567;-57
2022/04/13 07:10:16;;;;;;;;;;;13.40;99.90;;;;;;4954730;28;20054;-62
2022/04/13 07:12:43;;;;;;;18.27;3.97;;;13.50;99.90;;;;;;4954679;28;19933;-61
2022/04/13 07:15:11;;;;;;;;;;;13.60;99.90;;;;;;4975922;28;20976;-59
2022/04/13 07:17:38;;;;;;;11.02;4.00;;;13.80;99.90;;;;;;4973588;28;19940;-57
2022/04/13 07:20:05;;;;;;;9.52;4.10;;;13.90;99.90;;;;;;4973616;28;20043;-56
2022/04/13 07:22:32;;;;;;;11.13;3.75;;;14.00;99.90;;;;;;4974284;28;20066;-57
2022/04/13 07:24:58;;;;;;;;;;;14.10;99.90;;;;;;4974834;28;20042;-58
2022/04/13 07:27:25;;;;;;;7.30;3.17;;;14.20;99.90;;;;;;4972981;28;19926;-57
2022/04/13 07:29:52;;;;;;;15.23;3.90;;;14.30;99.90;;;;;;4974580;28;20812;-62
2022/04/13 07:32:19;;;;;;;;;;;14.40;99.90;;;;;;4972465;28;20050;-63
2022/04/13 07:34:45;;;;;;;9.00;3.13;;;14.60;99.90;;;;;;4971678;28;19929;-58
2022/04/13 07:37:12;;;;;;;9.27;2.85;;;14.80;99.90;;;;;;4973372;28;20038;-57
2022/04/13 07:39:39;;;;;;;;;;;15.00;99.90;;;;;;4972987;28;20417;-60
2022/04/13 07:42:06;;;;;;;12.50;3.50;;;15.20;99.90;;;;;;4973092;28;19930;-57
2022/04/13 07:44:33;;;;;;;6.93;2.47;;;15.60;99.90;;;;;;4973564;28;20050;-57
2022/04/13 07:47:20;;;;;;;9.80;4.30;;;16.10;99.90;;;;;;4973451;28;20877;-57
2022/04/13 07:49:47;;;;;;;11.45;3.45;;;16.80;98.10;;;;;;4972817;28;20357;-61
2022/04/13 07:52:15;;;;;;;9.82;3.45;;;17.10;96.00;;;;;;4973235;28;20054;-59
2022/04/13 07:54:44;;;;;;;11.90;3.58;;;17.20;94.80;;;;;;4971286;28;20145;-58
2022/04/13 07:57:12;;;;;;;12.55;3.65;;;17.40;93.10;;;;;;4971452;28;20789;-59
2022/04/13 07:59:40;;;;;;;11.40;3.65;;;17.70;91.20;;;;;;4973498;28;20051;-59
2022/04/13 08:02:08;;;;;;;9.02;3.08;;;18.10;91.20;;;;;;4973216;28;20436;-58
2022/04/13 08:04:36;;;;;;;9.15;3.50;;;18.60;89.70;;;;;;4971519;28;20046;-61
2022/04/13 08:07:03;;;;;;;12.15;2.95;;;19.00;85.80;;;;;;4971565;28;20412;-59
2022/04/13 08:09:30;;;;;;;12.32;3.50;;;19.50;82.30;;;;;;4977031;28;20661;-63
2022/04/13 08:11:57;;;;;;;10.45;3.42;;;19.90;78.50;;;;;;4977617;28;20050;-63
2022/04/13 08:14:24;;;;;;;;;;;20.40;73.30;;;;;;4979431;28;20042;-63
2022/04/13 08:16:51;;;;;;;8.38;3.30;;;20.80;70.60;;;;;;4979081;28;19930;-63
2022/04/13 08:19:18;;;;;;;16.70;4.03;;;21.10;70.30;;;;;;4977874;28;20474;-63
2022/04/13 08:21:45;;;;;;;9.80;3.88;;;21.40;68.30;;;;;;4979587;28;20145;-62
2022/04/13 08:24:13;;;;;;;15.80;3.63;;;21.60;68.50;;;;;;4980258;28;20133;-63
2022/04/13 08:26:40;;;;;;;10.88;3.10;;;21.90;65.80;;;;;;4979258;28;20100;-62
2022/04/13 08:29:08;;;;;;;8.02;2.90;;;22.10;64.30;;;;;;4977562;28;20567;-63
2022/04/13 08:31:35;;;;;;;16.30;3.78;;;22.20;60.90;;;;;;4980275;28;20124;-62
2022/04/13 08:34:02;;;;;;;15.18;4.00;;;22.20;59.60;;;;;;4977372;28;20133;-59
2022/04/13 08:36:29;;;;;;;14.13;3.80;;;22.10;59.80;;;;;;4978989;28;20034;-58
2022/04/13 08:38:55;;;;;;;18.75;3.78;;;22.00;59.70;;;;;;4994264;28;20176;-58
2022/04/13 08:41:48;;;;;;;18.55;4.13;;;21.90;61.90;;;;;;4977397;28;20740;-60
2022/04/13 08:44:34;;;;;;;10.55;3.40;;;22.00;63.00;;;;;;4980147;28;20706;-57
2022/04/13 08:47:06;;;;;;;20.40;4.53;;;22.00;61.80;;;;;;4981829;28;20607;-57
2022/04/13 08:49:34;;;;;;;12.25;4.22;;;22.20;64.20;;;;;;4978859;28;20050;-57
2022/04/13 08:52:04;;;;;;;12.50;4.07;;;22.40;61.70;;;;;;4979362;28;20050;-56
2022/04/13 08:54:36;;;;;;;13.55;4.47;;;22.60;60.90;;;;;;4978629;28;20042;-57
2022/04/13 08:57:07;;;;;;;15.55;4.03;;;22.80;60.20;;;;;;4977070;28;20669;-58
2022/04/13 09:00:31;;;;;;;13.20;4.57;;;22.90;57.70;;;;;;4978940;28;20042;-57
2022/04/13 09:03:13;;;;;;;6.97;4.30;;;23.00;59.80;;;;;;4976649;28;20046;-57
2022/04/13 09:05:50;;;;;;;10.30;5.03;;;23.20;60.30;;;;;;4979419;28;20061;-62
2022/04/13 09:08:21;;;;;;;11.48;4.90;;;23.40;59.00;;;;;;4978977;28;20050;-56
2022/04/13 09:10:50;;;;;;;16.40;4.75;;;23.40;57.90;;;;;;4979075;28;20160;-57
2022/04/13 09:13:20;;;;;;;7.82;4.50;;;23.50;57.80;;;;;;4979362;28;20858;-58
2022/04/13 09:15:47;;;;;;;16.23;6.43;;;23.70;57.60;;;;;;4977735;28;20056;-56
2022/04/13 09:18:15;;;;;;;15.27;5.45;;;23.70;57.10;;;;;;4978428;28;20042;-63
2022/04/13 09:20:42;;;;;;;13.90;5.30;;;23.80;58.60;;;;;;4975892;28;20116;-64
2022/04/13 09:23:12;;;;;;;16.00;5.30;;;24.00;58.30;;;;;;4975150;28;20058;-58
2022/04/13 09:25:40;;;;;;;12.38;5.78;;;24.10;58.20;;;;;;4975664;28;20049;-66
2022/04/13 09:28:07;;;;;;;13.45;5.53;;;24.20;57.00;;;;;;4975592;28;20069;-62
2022/04/13 09:30:35;;;;;;;8.05;4.55;;;24.30;55.90;;;;;;4974951;28;20050;-62
2022/04/13 09:33:03;;;;;;;18.27;5.28;;;24.40;56.00;;;;;;4975891;28;20046;-58
2022/04/13 09:35:34;;;;;;;8.25;4.95;;;24.40;56.70;;;;;;4973950;28;20065;-57
2022/04/13 09:38:06;;;;;;;11.48;6.07;;;24.50;56.40;;;;;;4959179;28;20429;-59
2022/04/13 09:40:40;;;;;;;9.32;5.07;;;24.60;57.50;;;;;;4968146;28;20901;-60
2022/04/13 09:43:19;;;;;;;13.07;5.35;;;24.60;57.00;;;;;;4976136;28;20073;-58
2022/04/13 09:45:49;;;;;;;9.45;5.60;;;24.80;58.40;;;;;;4976368;28;20857;-57
2022/04/13 09:48:19;;;;;;;10.88;6.82;;;24.90;57.80;;;;;;4974447;28;20043;-57
2022/04/13 09:50:48;;;;;;;10.63;5.68;;;25.00;57.10;;;;;;4975951;28;20136;-58
2022/04/13 09:53:17;;;;;;;17.30;6.35;;;25.10;55.20;;;;;;4975743;28;20050;-57
2022/04/13 09:55:56;;;;;;;9.90;5.38;;;25.20;55.00;;;;;;4973742;28;20038;-57
2022/04/13 09:58:25;;;;;;;10.90;5.65;;;25.20;55.30;;;;;;4974521;28;20043;-57
2022/04/13 10:01:00;;;;;;;11.75;5.40;;;25.30;55.30;;;;;;4975463;28;20038;-61
2022/04/13 10:03:28;;;;;;;14.32;5.88;;;25.30;55.20;;;;;;4975277;28;20669;-64
2022/04/13 10:05:57;;;;;;;11.27;5.88;;;25.40;54.70;;;;;;4975761;28;20047;-61
2022/04/13 10:08:28;;;;;;;13.57;5.80;;;25.50;53.90;;;;;;4990171;28;20046;-62
2022/04/13 10:10:57;;;;;;;14.73;6.28;;;25.40;54.10;;;;;;4993300;28;20046;-62
2022/04/13 10:13:30;;;;;;;8.95;4.80;;;25.30;53.80;;;;;;4994397;28;20042;-62
2022/04/13 10:15:59;;;;;;;14.52;5.45;;;25.20;53.90;;;;;;4990864;28;20073;-62
2022/04/13 10:18:27;;;;;;;13.25;7.10;;;25.30;55.30;;;;;;4993038;28;20104;-62
2022/04/13 10:20:54;;;;;;;12.45;6.05;;;25.40;52.10;;;;;;4995278;28;20046;-60
2022/04/13 10:23:21;;;;;;;11.70;6.45;;;25.50;53.10;;;;;;4993635;28;20072;-62
2022/04/13 10:25:48;;;;;;;15.32;6.07;;;25.60;54.30;;;;;;4992671;28;20061;-62
2022/04/13 10:28:21;;;;;;;11.65;6.25;;;25.70;53.20;;;;;;4993820;28;20096;-62
2022/04/13 10:30:49;;;;;;;14.10;6.45;;;25.90;52.60;;;;;;4976477;28;20837;-61
2022/04/13 10:33:16;;;;;;;10.82;7.05;;;26.00;53.50;;;;;;4974313;28;20042;-61
2022/04/13 10:35:44;;;;;;;12.55;6.75;;;26.20;53.20;;;;;;4974589;28;20038;-62
2022/04/13 10:38:13;;;;;;;11.90;6.72;;;26.20;52.60;;;;;;4962100;28;20525;-61
2022/04/13 10:40:42;;;;;;;9.73;7.10;;;26.30;51.90;;;;;;4966805;28;20053;-61
2022/04/13 10:43:12;;;;;;;15.88;8.50;;;26.30;52.00;;;;;;4975050;28;20121;-61
2022/04/13 10:45:41;;;;;;;15.23;8.02;;;26.40;51.60;;;;;;4975037;28;20619;-59
2022/04/13 10:48:10;;;;;;;17.00;7.97;;;26.30;51.50;;;;;;4973583;28;20046;-63
2022/04/13 10:51:12;;;;;;;8.88;7.13;;;26.00;51.30;;;;;;4974805;28;20045;-61
2022/04/13 10:53:48;;;;;;;12.10;7.75;;;25.70;52.80;;;;;;4975480;28;20073;-56
2022/04/13 10:56:17;;;;;;;13.00;8.40;;;25.60;52.40;;;;;;4973762;28;20046;-55
2022/04/13 10:59:15;;;;;;;16.50;7.70;;;25.50;53.40;;;;;;4973730;28;20453;-58
2022/04/13 11:01:45;;;;;;;16.10;9.32;;;25.50;53.30;;;;;;4974586;28;20042;-61
2022/04/13 11:04:16;;;;;;;11.50;7.10;;;25.50;51.90;;;;;;4972257;28;20054;-60
2022/04/13 11:06:45;;;;;;;10.00;7.13;;;25.30;53.90;;;;;;4972957;28;20057;-58
2022/04/13 11:09:44;;;;;;;11.73;8.43;;;25.30;54.00;;;;;;4972860;28;20049;-60
2022/04/13 11:12:12;;;;;;;15.38;8.55;;;25.20;53.20;;;;;;4972393;28;20070;-61
2022/04/13 11:14:54;;;;;;;10.43;8.38;;;25.10;53.50;;;;;;4972453;28;20128;-62
2022/04/13 11:17:21;;;;;;;8.88;5.82;;;24.90;53.60;;;;;;4973397;28;20058;-61
2022/04/13 11:19:48;;;;;;;14.88;7.97;;;24.90;55.00;;;;;;4974565;28;20120;-62
2022/04/13 11:22:17;;;;;;;12.73;7.65;;;25.00;54.90;;;;;;4973943;28;20054;-60
2022/04/13 11:24:46;;;;;;;13.55;7.85;;;25.10;55.30;;;;;;4973435;28;20125;-61
2022/04/13 11:27:14;;;;;;;12.73;7.80;;;25.30;56.20;;;;;;4971078;28;20042;-62
2022/04/13 11:30:00;;;;;;;11.50;7.15;;;25.50;54.30;;;;;;4973332;28;20054;-61
2022/04/13 11:32:33;;;;;;;12.15;8.30;;;25.70;53.00;;;;;;4973321;28;20046;-62
2022/04/13 11:35:01;;;;;;;202.38;25.98;;;25.70;53.30;;;;;;4974217;28;20590;-62
2022/04/13 11:37:33;;;;;;;11.77;8.13;;;25.80;53.90;;;;;;4969294;28;20144;-63
2022/04/13 11:40:10;;;;;;;12.43;7.97;;;25.80;52.80;;;;;;4969967;28;20050;-63
2022/04/13 11:42:40;;;;;;;17.50;9.45;;;25.90;53.00;;;;;;4973845;28;20038;-62
2022/04/13 11:45:12;;;;;;;18.05;7.70;;;26.00;51.00;;;;;;4973243;28;20129;-60
2022/04/13 11:47:50;;;;;;;30.08;8.05;;;26.00;53.10;;;;;;4971458;28;20421;-61
2022/04/13 11:50:17;;;;;;;11.43;8.40;;;26.00;52.80;;;;;;4973506;28;20046;-58
2022/04/13 11:52:49;;;;;;;9.55;5.38;;;26.20;52.70;;;;;;4972091;28;20100;-58
2022/04/13 11:55:25;;;;;;;14.48;5.90;;;26.30;52.20;;;;;;4972759;28;20049;-62
2022/04/13 11:57:58;;;;;;;37.38;10.07;;;26.40;50.80;;;;;;4972367;28;20337;-59
2022/04/13 12:00:39;;;;;;;8.50;5.75;;;26.60;50.40;;;;;;4973341;28;20050;-63
2022/04/13 12:03:10;;;;;;;24.88;5.57;;;26.80;49.20;;;;;;4972519;28;20418;-64
2022/04/13 12:05:42;;;;;;;10.77;4.13;;;26.90;46.90;;;;;;4974035;28;20054;-64
2022/04/13 12:08:15;;;;;;;6.63;4.60;;;27.00;46.30;;;;;;4973304;28;20053;-63
2022/04/13 12:10:50;;;;;;;10.35;5.22;;;27.20;45.70;;;;;;4972370;28;20046;-63
2022/04/13 12:13:17;;;;;;;8.90;4.63;;;27.30;47.90;;;;;;4973672;28;20043;-61
2022/04/13 12:15:55;;;;;;;7.55;4.22;;;27.10;44.80;;;;;;4973482;28;20057;-62
2022/04/13 12:18:24;;;;;;;7.22;3.97;;;27.00;45.90;;;;;;4972342;28;20129;-61
2022/04/13 12:20:52;;;;;;;10.27;4.18;;;27.00;45.60;;;;;;4973099;28;20050;-62
2022/04/13 12:23:25;;;;;;;7.60;3.70;;;26.90;44.20;;;;;;4973790;28;20124;-62
2022/04/13 12:25:56;;;;;;;7.28;2.50;;;26.80;45.60;;;;;;4973912;28;20077;-62
2022/04/13 12:28:24;;;;;;;7.28;3.20;;;26.60;44.00;;;;;;4973340;28;20055;-62
2022/04/13 12:31:01;;;;;;;7.57;4.50;;;26.60;45.20;;;;;;4970116;28;20046;-62
2022/04/13 12:33:30;;;;;;;3.40;2.97;;;26.80;45.20;;;;;;4973402;28;20420;-62
2022/04/13 12:35:59;;;;;;;6.82;3.00;;;26.90;43.90;;;;;;4972280;28;20057;-62
2022/04/13 12:38:31;;;;;;;4.55;2.40;;;26.80;41.50;;;;;;4968365;28;20038;-63
2022/04/13 12:41:02;;;;;;;5.90;2.85;;;26.70;44.20;;;;;;4954137;28;20043;-63
2022/04/13 12:43:30;;;;;;;8.98;2.50;;;26.80;44.20;;;;;;4954676;28;20050;-62
2022/04/13 12:45:57;;;;;;;9.27;4.25;;;26.90;43.60;;;;;;4953787;28;20050;-61
2022/04/13 12:48:27;;;;;;;8.13;3.13;;;26.90;42.60;;;;;;4963992;28;20519;-61
2022/04/13 12:50:58;;;;;;;7.93;3.65;;;26.70;42.80;;;;;;4973342;28;20049;-62
2022/04/13 12:53:26;;;;;;;6.68;2.85;;;26.60;43.30;;;;;;4972733;28;20046;-61
2022/04/13 12:55:54;;;;;;;5.00;2.78;;;26.60;42.70;;;;;;4974614;28;20058;-62
2022/04/13 12:58:21;;;;;;;8.65;3.25;;;26.70;43.10;;;;;;4976458;28;20047;-61
2022/04/13 13:00:48;;;;;;;8.95;3.50;;;26.70;43.90;;;;;;4976261;28;20057;-62
2022/04/13 13:03:16;;;;;;;6.10;3.58;;;26.60;43.70;;;;;;4965934;28;20046;-63
2022/04/13 13:05:44;;;;;;;6.60;4.22;;;26.60;44.20;;;;;;4977111;28;20104;-62